logo
Search for airport 
image banner adimage banner adimage banner ad
image banner ad

MMCN - Cd. Obregon Aeropuerto Internacional

Located in Ciudad Obregon, Mexico

ICAO - MMCN, IATA - CEN

Data provided by Airmate  

General information

Coordinates: N27°23'34" W109°49'59"
Elevation is 205 feet MSL.
 
View others Airports in Sonora

Operational data

Special qualification required
Current time UTC:
Current local time:
Weather
TAF: TAF MMCN 180459Z 1806/1906 00000KT P6SM SKC FM181500 24010KT P6SM SKC FM190200 00000KT P6SM SCT200
View NOTAMs / SUP AIP / TFR affecting this airport [VIEW]
Communications frequencies: [VIEW]

Runways:

RWY identifierQFULength (ft)Width (ft)SurfaceLDA (ft)
13137°7546148ASP
31317°7546148ASP

Airport contact information

Address: Ciudad Obregon Mexico

Satellite view of MMCN